Copper Queen, Arizona
Current Conditions -  °F | °C
As of 3:56 PM on Monday 20 Oct 2014 (Local Time) from KDUG Reporting Station
Few Clouds Few Clouds  
Wind Chill: 24°   Ceiling: Unl
Heat Index: 24°   Visibility: 10mi
Dew Point:   Wind: 14mph
Humidity: 37%   Direction: 80°E
Pressure: 29.97"   Gusts: NA
Location:  31.4799°N, 109.96°W
Report Text: KDUG 202256Z AUTO 08012KT 10SM FEW075 24/08 A2997 RMK AO2 SLP097 T02390083
Loading
Personal Weather Stations






























Interactive Weather Map
Tropical Storm Tracking
New forecast layout! Learn more

10-Day Weather Forecast

Advertisements
Track Severe Weather on mobile